^^
Your Local Weather - Clay, NY Station Historical Data
Daily Summary for March 18, 2017 Units:  English    Metric   Both
« Previous Day
Next Day »
Daily Weekly Monthly Yearly Custom
  High: Low: Average:
Temperature: 35.2 °F 15.0 °F 26.1 °F
Dew Point: 29.7 °F 5.7 °F 17.9 °F
Humidity: 91% 45% 72%
Wind Speed: 6.0mph 0.0mph 2.1mph
Wind Gust: 11.0mph - -
Wind- - East
Pressure: 30.18 in 30.09 in -
Precipitation: 0.07 in    
Historical Graphs
 
 
Tabular Data for March 18, 2017
Time Temperature Dew Point Pressure Wind Wind Speed Wind Gust Humidity Rainfall Rate (Hourly) solar
00:00 18.8 °F 10.0 °F 30.17 in Calm     68% 0.00 in 0 W/m2
00:06 18.4 °F 9.9 °F 30.17 in Calm     69% 0.00 in 0 W/m2
00:12 18.0 °F 9.5 °F 30.17 in Calm     69% 0.00 in 0 W/m2
00:18 17.7 °F 9.2 °F 30.17 in Calm     69% 0.00 in 0 W/m2
00:24 17.5 °F 9.1 °F 30.17 in Calm     69% 0.00 in 0 W/m2
00:30 17.2 °F 8.4 °F 30.18 in Calm     68% 0.00 in 0 W/m2
00:36 17.1 °F 8.7 °F 30.18 in Calm     69% 0.00 in 0 W/m2
00:42 16.9 °F 9.1 °F 30.18 in Calm     71% 0.00 in 0 W/m2
00:48 16.9 °F 9.4 °F 30.17 in Calm     72% 0.00 in 0 W/m2
00:54 16.9 °F 9.4 °F 30.17 in Calm     72% 0.00 in 0 W/m2
01:00 16.8 °F 9.6 °F 30.17 in Calm     73% 0.00 in 0 W/m2
01:06 16.9 °F 9.7 °F 30.17 in Calm     73% 0.00 in 0 W/m2
01:12 17.0 °F 9.8 °F 30.17 in Calm     73% 0.00 in 0 W/m2
01:18 17.1 °F 9.9 °F 30.17 in Calm     73% 0.00 in 0 W/m2
01:24 16.8 °F 9.3 °F 30.17 in Calm   1.0 mph 72% 0.00 in 0 W/m2
01:30 16.8 °F 9.0 °F 30.17 in Calm     71% 0.00 in 0 W/m2
01:36 16.4 °F 8.9 °F 30.17 in Calm     72% 0.00 in 0 W/m2
01:42 16.1 °F 8.7 °F 30.17 in Calm     72% 0.00 in 0 W/m2
01:48 16.1 °F 8.7 °F 30.17 in Calm     72% 0.00 in 0 W/m2
01:54 16.1 °F 9.0 °F 30.17 in Calm   1.0 mph 73% 0.00 in 0 W/m2
02:00 16.3 °F 9.2 °F 30.17 in Calm     73% 0.00 in 0 W/m2
02:06 16.5 °F 9.4 °F 30.17 in Calm     73% 0.00 in 0 W/m2
02:12 16.5 °F 9.4 °F 30.17 in Calm     73% 0.00 in 0 W/m2
02:16 16.4 °F 8.9 °F 30.17 in Calm     72% 0.00 in 0 W/m2
02:22 16.2 °F 9.1 °F 30.17 in Calm     73% 0.00 in 0 W/m2
02:28 16.4 °F 9.3 °F 30.17 in Calm   1.0 mph 73% 0.00 in 0 W/m2
02:34 16.5 °F 9.4 °F 30.16 in Calm   2.0 mph 73% 0.00 in 0 W/m2
02:40 16.6 °F 9.1 °F 30.16 in North 1.0 mph 1.0 mph 72% 0.00 in 0 W/m2
02:46 16.8 °F 9.3 °F 30.16 in North 1.0 mph 1.0 mph 72% 0.00 in 0 W/m2
02:52 17.2 °F 9.4 °F 30.16 in NE 1.0 mph 3.0 mph 71% 0.00 in 0 W/m2
02:58 17.4 °F 9.3 °F 30.16 in NE 1.0 mph 3.0 mph 70% 0.00 in 0 W/m2
03:04 17.4 °F 9.0 °F 30.15 in ENE 1.0 mph 2.0 mph 69% 0.00 in 0 W/m2
03:10 17.2 °F 8.8 °F 30.15 in ENE 1.0 mph 1.0 mph 69% 0.00 in 0 W/m2
03:16 16.6 °F 8.5 °F 30.15 in ENE 1.0 mph 1.0 mph 70% 0.00 in 0 W/m2
03:22 15.9 °F 7.5 °F 30.15 in Calm     69% 0.00 in 0 W/m2
03:28 15.4 °F 7.7 °F 30.16 in Calm     71% 0.00 in 0 W/m2
03:34 15.0 °F 7.3 °F 30.15 in Calm   1.0 mph 71% 0.00 in 0 W/m2
03:40 15.8 °F 8.1 °F 30.15 in East 1.0 mph 1.0 mph 71% 0.00 in 0 W/m2
03:46 16.2 °F 8.1 °F 30.15 in East 2.0 mph 3.0 mph 70% 0.00 in 0 W/m2
03:52 16.5 °F 8.1 °F 30.15 in East 1.0 mph 1.0 mph 69% 0.00 in 0 W/m2
03:58 16.8 °F 8.4 °F 30.15 in East 1.0 mph 2.0 mph 69% 0.00 in 0 W/m2
04:04 17.5 °F 8.4 °F 30.14 in East 2.0 mph 2.0 mph 67% 0.00 in 0 W/m2
04:10 16.9 °F 7.5 °F 30.14 in ENE 1.0 mph 1.0 mph 66% 0.00 in 0 W/m2
04:16 16.9 °F 8.2 °F 30.14 in East 1.0 mph 4.0 mph 68% 0.00 in 0 W/m2
04:22 17.2 °F 8.1 °F 30.14 in ENE 2.0 mph 3.0 mph 67% 0.00 in 0 W/m2
04:28 16.7 °F 8.0 °F 30.14 in ENE 1.0 mph 3.0 mph 68% 0.00 in 0 W/m2
04:36 18.1 °F 8.6 °F 30.14 in ENE 2.0 mph 5.0 mph 66% 0.00 in 0 W/m2
04:42 18.4 °F 8.2 °F 30.14 in East 2.0 mph 5.0 mph 64% 0.00 in 0 W/m2
04:48 18.1 °F 8.0 °F 30.13 in East 2.0 mph 5.0 mph 64% 0.00 in 0 W/m2
04:54 18.4 °F 8.2 °F 30.12 in ENE 2.0 mph 4.0 mph 64% 0.00 in 0 W/m2
05:00 18.8 °F 8.3 °F 30.12 in ENE 2.0 mph 2.0 mph 63% 0.00 in 0 W/m2
05:06 18.8 °F 7.9 °F 30.12 in East 2.0 mph 3.0 mph 62% 0.00 in 0 W/m2
05:12 18.4 °F 7.9 °F 30.12 in ENE 2.0 mph 7.0 mph 63% 0.00 in 0 W/m2
05:18 19.4 °F 8.1 °F 30.12 in East 3.0 mph 7.0 mph 61% 0.00 in 0 W/m2
05:24 19.7 °F 8.0 °F 30.12 in ENE 3.0 mph 5.0 mph 60% 0.00 in 0 W/m2
05:30 19.7 °F 7.7 °F 30.12 in ENE 3.0 mph 3.0 mph 59% 0.00 in 0 W/m2
05:36 19.3 °F 7.3 °F 30.12 in ENE 2.0 mph 3.0 mph 59% 0.00 in 0 W/m2
05:42 18.8 °F 7.2 °F 30.12 in ENE 1.0 mph 2.0 mph 60% 0.00 in 0 W/m2
05:54 18.5 °F 6.9 °F 30.13 in Calm   1.0 mph 60% 0.00 in 0 W/m2
06:00 18.2 °F 6.6 °F 30.13 in Calm   1.0 mph 60% 0.00 in 0 W/m2
06:06 17.9 °F 6.7 °F 30.12 in NE 1.0 mph 4.0 mph 61% 0.00 in 0 W/m2
06:12 17.8 °F 6.2 °F 30.12 in NE 2.0 mph 6.0 mph 60% 0.00 in 0 W/m2
06:18 18.1 °F 6.5 °F 30.12 in East 3.0 mph 6.0 mph 60% 0.00 in 0 W/m2
06:24 18.3 °F 6.4 °F 30.12 in East 2.0 mph 3.0 mph 59% 0.00 in 0 W/m2
06:30 18.4 °F 6.1 °F 30.12 in East 1.0 mph 2.0 mph 58% 0.00 in 0 W/m2
06:36 18.2 °F 5.9 °F 30.11 in ENE 1.0 mph 2.0 mph 58% 0.00 in 0 W/m2
06:42 17.7 °F 5.8 °F 30.11 in ENE 2.0 mph 3.0 mph 59% 0.00 in 0 W/m2
06:48 18.2 °F 5.9 °F 30.12 in ENE 2.0 mph 5.0 mph 58% 0.00 in 0 W/m2
06:54 18.3 °F 6.0 °F 30.11 in East 2.0 mph 5.0 mph 58% 0.00 in 0 W/m2
07:00 18.0 °F 5.7 °F 30.11 in ENE 2.0 mph 2.0 mph 58% 0.00 in 0 W/m2
07:06 17.8 °F 5.9 °F 30.12 in ENE 2.0 mph 4.0 mph 59% 0.00 in 5 W/m2
07:12 18.3 °F 6.0 °F 30.12 in ENE 3.0 mph 3.0 mph 58% 0.00 in 5 W/m2
07:18 18.2 °F 5.9 °F 30.12 in East 3.0 mph 3.0 mph 58% 0.00 in 11 W/m2
07:24 18.2 °F 6.3 °F 30.12 in East 1.0 mph 2.0 mph 59% 0.00 in 16 W/m2
07:30 18.1 °F 6.2 °F 30.13 in SE 1.0 mph 2.0 mph 59% 0.00 in 19 W/m2
07:36 18.5 °F 6.2 °F 30.14 in SE 1.0 mph 2.0 mph 58% 0.00 in 25 W/m2
07:42 18.7 °F 6.4 °F 30.14 in East 1.0 mph 1.0 mph 58% 0.00 in 26 W/m2
07:48 18.8 °F 6.8 °F 30.14 in ENE 2.0 mph 3.0 mph 59% 0.00 in 40 W/m2
07:54 19.1 °F 7.1 °F 30.14 in East 3.0 mph 3.0 mph 59% 0.00 in 47 W/m2
08:00 19.6 °F 7.2 °F 30.13 in East 5.0 mph 9.0 mph 58% 0.00 in 51 W/m2
08:06 19.9 °F 7.5 °F 30.13 in East 5.0 mph 9.0 mph 58% 0.00 in 54 W/m2
08:12 20.3 °F 7.9 °F 30.13 in East 4.0 mph 5.0 mph 58% 0.00 in 56 W/m2
08:18 20.5 °F 8.0 °F 30.12 in ENE 3.0 mph 5.0 mph 58% 0.00 in 62 W/m2
08:26 20.8 °F 8.3 °F 30.12 in East 4.0 mph 4.0 mph 58% 0.00 in 69 W/m2
08:32 21.0 °F 8.1 °F 30.12 in ENE 4.0 mph 5.0 mph 57% 0.00 in 77 W/m2
08:38 21.3 °F 8.4 °F 30.12 in East 3.0 mph 5.0 mph 57% 0.00 in 88 W/m2
08:44 21.5 °F 8.6 °F 30.12 in ENE 4.0 mph 5.0 mph 57% 0.00 in 97 W/m2
08:50 21.7 °F 8.8 °F 30.12 in East 4.0 mph 4.0 mph 57% 0.00 in 105 W/m2
08:56 22.0 °F 9.1 °F 30.12 in ENE 3.0 mph 4.0 mph 57% 0.00 in 118 W/m2
09:02 22.4 °F 9.8 °F 30.12 in SE 4.0 mph 4.0 mph 58% 0.00 in 135 W/m2
09:08 22.7 °F 10.1 °F 30.13 in ENE 4.0 mph 4.0 mph 58% 0.00 in 142 W/m2
09:14 23.0 °F 10.0 °F 30.12 in ENE 4.0 mph 5.0 mph 57% 0.00 in 155 W/m2
09:20 23.4 °F 10.0 °F 30.12 in ENE 4.0 mph 4.0 mph 56% 0.00 in 158 W/m2
09:26 23.8 °F 10.4 °F 30.12 in ENE 4.0 mph 4.0 mph 56% 0.00 in 171 W/m2
09:32 24.2 °F 10.3 °F 30.12 in East 4.0 mph 5.0 mph 55% 0.00 in 174 W/m2
09:38 24.8 °F 10.9 °F 30.12 in East 4.0 mph 5.0 mph 55% 0.00 in 181 W/m2
09:44 25.3 °F 11.0 °F 30.12 in ENE 4.0 mph 8.0 mph 54% 0.00 in 193 W/m2
09:50 25.7 °F 10.9 °F 30.12 in East 4.0 mph 4.0 mph 53% 0.00 in 223 W/m2
09:56 26.3 °F 11.5 °F 30.12 in East 3.0 mph 4.0 mph 53% 0.00 in 241 W/m2
10:02 26.8 °F 11.9 °F 30.12 in ENE 3.0 mph 3.0 mph 53% 0.00 in 271 W/m2
10:08 27.2 °F 11.9 °F 30.12 in ENE 3.0 mph 4.0 mph 52% 0.00 in 285 W/m2
10:14 27.6 °F 11.8 °F 30.12 in ESE 4.0 mph 5.0 mph 51% 0.00 in 294 W/m2
10:20 28.4 °F 12.1 °F 30.12 in ENE 3.0 mph 5.0 mph 50% 0.00 in 450 W/m2
10:26 29.3 °F 12.5 °F 30.12 in ESE 3.0 mph 9.0 mph 49% 0.00 in 318 W/m2
10:32 29.2 °F 12.8 °F 30.12 in NNE 3.0 mph 4.0 mph 50% 0.00 in 316 W/m2
10:38 29.5 °F 13.6 °F 30.12 in ENE 2.0 mph 4.0 mph 51% 0.00 in 334 W/m2
10:56 30.8 °F 13.4 °F 30.12 in North 4.0 mph 4.0 mph 48% 0.00 in 422 W/m2
11:02 30.7 °F 13.3 °F 30.11 in East 4.0 mph 5.0 mph 48% 0.00 in 482 W/m2
11:08 31.3 °F 12.9 °F 30.11 in East 4.0 mph 6.0 mph 46% 0.00 in 452 W/m2
11:14 31.4 °F 13.5 °F 30.11 in East 5.0 mph 5.0 mph 47% 0.00 in 418 W/m2
11:20 31.7 °F 13.7 °F 30.11 in East 4.0 mph 8.0 mph 47% 0.00 in 404 W/m2
11:26 31.4 °F 13.0 °F 30.11 in ENE 5.0 mph 10.0 mph 46% 0.00 in 434 W/m2
11:32 31.7 °F 13.7 °F 30.11 in ENE 6.0 mph 6.0 mph 47% 0.00 in 418 W/m2
11:38 31.8 °F 12.8 °F 30.11 in ENE 5.0 mph 8.0 mph 45% 0.00 in 418 W/m2
11:44 32.2 °F 13.7 °F 30.11 in East 5.0 mph 7.0 mph 46% 0.00 in 452 W/m2
11:50 32.5 °F 14.5 °F 30.11 in East 5.0 mph 5.0 mph 47% 0.00 in 401 W/m2
11:56 32.5 °F 14.0 °F 30.11 in East 5.0 mph 9.0 mph 46% 0.00 in 369 W/m2
12:02 32.5 °F 15.0 °F 30.11 in East 6.0 mph 6.0 mph 48% 0.00 in 295 W/m2
12:08 32.3 °F 14.3 °F 30.10 in ENE 6.0 mph 8.0 mph 47% 0.00 in 272 W/m2
12:14 32.4 °F 14.4 °F 30.10 in ESE 6.0 mph 10.0 mph 47% 0.00 in 260 W/m2
12:20 32.7 °F 15.6 °F 30.10 in NE 5.0 mph 8.0 mph 49% 0.00 in 223 W/m2
12:26 32.8 °F 15.2 °F 30.10 in ENE 4.0 mph 9.0 mph 48% 0.00 in 216 W/m2
12:32 33.0 °F 14.9 °F 30.10 in ENE 3.0 mph 4.0 mph 47% 0.00 in 214 W/m2
12:38 33.0 °F 14.9 °F 30.10 in ENE 3.0 mph 4.0 mph 47% 0.00 in 209 W/m2
12:46 32.9 °F 14.8 °F 30.10 in ENE 4.0 mph 9.0 mph 47% 0.00 in 227 W/m2
12:52 33.3 °F 15.7 °F 30.11 in ESE 3.0 mph 4.0 mph 48% 0.00 in 206 W/m2
12:58 33.5 °F 15.4 °F 30.11 in SE 3.0 mph 4.0 mph 47% 0.00 in 178 W/m2
13:04 33.7 °F 14.6 °F 30.11 in ESE 3.0 mph 3.0 mph 45% 0.00 in 153 W/m2
13:10 33.7 °F 16.1 °F 30.11 in ESE 3.0 mph 3.0 mph 48% 0.00 in 123 W/m2
13:16 33.8 °F 16.6 °F 30.11 in ESE 3.0 mph 4.0 mph 49% 0.00 in 137 W/m2
13:22 33.2 °F 19.6 °F 30.11 in East 3.0 mph 3.0 mph 57% 0.00 in 220 W/m2
13:28 33.7 °F 20.1 °F 30.11 in East 2.0 mph 3.0 mph 57% 0.00 in 281 W/m2
13:34 34.2 °F 19.7 °F 30.10 in ENE 2.0 mph 4.0 mph 55% 0.00 in 332 W/m2
13:40 34.5 °F 20.0 °F 30.10 in ESE 2.0 mph 3.0 mph 55% 0.00 in 343 W/m2
13:52 35.2 °F 19.3 °F 30.09 in ENE 3.0 mph 9.0 mph 52% 0.00 in 323 W/m2
13:58 34.8 °F 25.0 °F 30.09 in East 4.0 mph 9.0 mph 67% 0.00 in 276 W/m2
14:06 34.1 °F 26.7 °F 30.09 in SE 4.0 mph 4.0 mph 74% 0.00 in 279 W/m2
14:12 33.4 °F 26.6 °F 30.09 in SSE 4.0 mph 4.0 mph 76% 0.00 in 272 W/m2
14:18 33.3 °F 27.2 °F 30.09 in SSE 4.0 mph 6.0 mph 78% 0.00 in 227 W/m2
14:24 33.0 °F 27.8 °F 30.09 in SE 4.0 mph 5.0 mph 81% 0.00 in 151 W/m2
14:30 32.7 °F 28.1 °F 30.09 in East 5.0 mph 6.0 mph 83% 0.00 in 169 W/m2
14:36 32.7 °F 28.4 °F 30.09 in SSE 4.0 mph 6.0 mph 84% 0.00 in 153 W/m2
14:42 32.6 °F 28.3 °F 30.09 in ENE 5.0 mph 11.0 mph 84% 0.00 in 111 W/m2
14:48 32.1 °F 28.1 °F 30.09 in SSE 4.0 mph 11.0 mph 85% 0.00 in 109 W/m2
14:54 32.1 °F 28.4 °F 30.09 in East 3.0 mph 4.0 mph 86% 0.00 in 113 W/m2
15:00 32.0 °F 28.3 °F 30.09 in ENE 3.0 mph 3.0 mph 86% 0.00 in 158 W/m2
15:06 31.9 °F 28.5 °F 30.09 in East 4.0 mph 5.0 mph 87% 0.00 in 151 W/m2
15:12 31.9 °F 28.5 °F 30.09 in ENE 3.0 mph 4.0 mph 87% 0.00 in 127 W/m2
15:18 31.6 °F 28.5 °F 30.09 in East 4.0 mph 4.0 mph 88% 0.00 in 97 W/m2
15:24 31.4 °F 28.3 °F 30.09 in ENE 4.0 mph 5.0 mph 88% 0.00 in 95 W/m2
15:30 31.2 °F 28.1 °F 30.09 in East 5.0 mph 6.0 mph 88% 0.00 in 83 W/m2
15:36 31.2 °F 28.1 °F 30.09 in ENE 4.0 mph 6.0 mph 88% 0.00 in 113 W/m2
15:42 31.3 °F 28.4 °F 30.09 in East 4.0 mph 10.0 mph 89% 0.00 in 107 W/m2
15:48 31.3 °F 28.4 °F 30.09 in ENE 4.0 mph 10.0 mph 89% 0.00 in 79 W/m2
15:54 31.2 °F 28.3 °F 30.09 in ENE 3.0 mph 5.0 mph 89% 0.00 in 79 W/m2
16:00 31.2 °F 28.3 °F 30.09 in ENE 3.0 mph 10.0 mph 89% 0.00 in 86 W/m2
16:06 31.1 °F 28.2 °F 30.09 in ENE 4.0 mph 10.0 mph 89% 0.00 in 100 W/m2
16:12 31.2 °F 28.6 °F 30.09 in ESE 4.0 mph 4.0 mph 90% 0.00 in 111 W/m2
16:18 31.4 °F 28.8 °F 30.09 in ESE 3.0 mph 4.0 mph 90% 0.00 in 142 W/m2
16:24 31.8 °F 29.2 °F 30.09 in ENE 2.0 mph 3.0 mph 90% 0.00 in 137 W/m2
16:30 32.0 °F 29.4 °F 30.09 in ENE 3.0 mph 3.0 mph 90% 0.06 in 148 W/m2
16:36 32.1 °F 29.5 °F 30.09 in ENE 3.0 mph 3.0 mph 90% 0.06 in 135 W/m2
16:42 32.2 °F 29.6 °F 30.09 in ENE 3.0 mph 3.0 mph 90% 0.06 in 120 W/m2
16:48 32.3 °F 29.7 °F 30.09 in East 3.0 mph 6.0 mph 90% 0.06 in 104 W/m2
16:54 32.3 °F 29.7 °F 30.09 in East 3.0 mph 3.0 mph 90% 0.04 in 93 W/m2
17:00 32.2 °F 29.6 °F 30.09 in ENE 2.0 mph 2.0 mph 90% 0.00 in 98 W/m2
17:06 32.0 °F 29.4 °F 30.09 in East 3.0 mph 3.0 mph 90% 0.00 in 90 W/m2
17:12 31.9 °F 29.3 °F 30.09 in ENE 3.0 mph 4.0 mph 90% 0.00 in 88 W/m2
17:18 31.9 °F 29.3 °F 30.09 in ENE 4.0 mph 5.0 mph 90% 0.00 in 63 W/m2
17:24 31.6 °F 29.0 °F 30.09 in East 5.0 mph 8.0 mph 90% 0.00 in 56 W/m2
17:30 31.5 °F 28.9 °F 30.09 in ENE 4.0 mph 4.0 mph 90% 0.00 in 49 W/m2
17:36 31.4 °F 28.8 °F 30.10 in East 4.0 mph 4.0 mph 90% 0.00 in 44 W/m2
17:42 31.4 °F 29.1 °F 30.10 in ENE 4.0 mph 4.0 mph 91% 0.00 in 53 W/m2
17:48 31.4 °F 29.1 °F 30.10 in ENE 3.0 mph 4.0 mph 91% 0.00 in 42 W/m2
17:54 31.4 °F 29.1 °F 30.10 in ENE 3.0 mph 4.0 mph 91% 0.00 in 32 W/m2
18:00 31.4 °F 29.1 °F 30.10 in ENE 3.0 mph 3.0 mph 91% 0.00 in 28 W/m2
18:06 31.4 °F 29.1 °F 30.10 in NNE 1.0 mph 3.0 mph 91% 0.00 in 28 W/m2
18:12 31.4 °F 29.1 °F 30.11 in Calm     91% 0.00 in 25 W/m2
18:18 31.4 °F 29.1 °F 30.11 in Calm     91% 0.00 in 23 W/m2
18:24 31.3 °F 29.0 °F 30.11 in Calm     91% 0.00 in 19 W/m2
18:30 31.1 °F 28.8 °F 30.11 in Calm     91% 0.00 in 18 W/m2
18:36 31.0 °F 28.7 °F 30.11 in Calm     91% 0.00 in 14 W/m2
18:42 31.0 °F 28.7 °F 30.11 in Calm     91% 0.00 in 12 W/m2
18:48 30.9 °F 28.6 °F 30.12 in Calm     91% 0.00 in 9 W/m2
18:54 30.8 °F 28.5 °F 30.12 in Calm     91% 0.00 in 5 W/m2
19:00 30.8 °F 28.5 °F 30.12 in Calm     91% 0.00 in 0 W/m2
19:06 30.7 °F 28.4 °F 30.12 in Calm     91% 0.00 in 0 W/m2
19:12 30.8 °F 28.5 °F 30.12 in Calm     91% 0.00 in 0 W/m2
19:18 30.8 °F 28.5 °F 30.12 in Calm     91% 0.00 in 0 W/m2
19:24 30.9 °F 28.6 °F 30.12 in Calm     91% 0.00 in 0 W/m2
19:30 31.0 °F 28.7 °F 30.13 in Calm     91% 0.00 in 0 W/m2
19:36 31.0 °F 28.7 °F 30.13 in Calm     91% 0.00 in 0 W/m2
19:42 31.1 °F 28.8 °F 30.13 in Calm     91% 0.00 in 0 W/m2
19:48 31.1 °F 28.8 °F 30.14 in Calm     91% 0.00 in 0 W/m2
19:54 31.1 °F 28.8 °F 30.14 in Calm     91% 0.00 in 0 W/m2
20:00 31.1 °F 28.8 °F 30.14 in Calm     91% 0.00 in 0 W/m2
20:08 31.0 °F 28.7 °F 30.14 in Calm     91% 0.00 in 0 W/m2
20:14 31.0 °F 28.7 °F 30.14 in Calm     91% 0.00 in 0 W/m2
20:20 31.0 °F 28.7 °F 30.14 in Calm     91% 0.00 in 0 W/m2
20:26 31.0 °F 28.7 °F 30.15 in Calm     91% 0.00 in 0 W/m2
20:32 31.0 °F 28.7 °F 30.15 in Calm     91% 0.00 in 0 W/m2
20:38 31.0 °F 28.7 °F 30.15 in Calm     91% 0.00 in 0 W/m2
20:44 31.0 °F 28.7 °F 30.15 in Calm     91% 0.00 in 0 W/m2
20:50 31.0 °F 28.7 °F 30.16 in Calm     91% 0.00 in 0 W/m2
20:56 31.2 °F 28.9 °F 30.16 in Calm   4.0 mph 91% 0.00 in 0 W/m2
21:02 31.2 °F 28.9 °F 30.16 in ENE 2.0 mph 4.0 mph 91% 0.00 in 0 W/m2
21:08 31.2 °F 28.9 °F 30.16 in East 3.0 mph 4.0 mph 91% 0.00 in 0 W/m2
21:14 31.3 °F 29.0 °F 30.16 in ENE 3.0 mph 5.0 mph 91% 0.00 in 0 W/m2
21:20 31.3 °F 29.0 °F 30.16 in East 3.0 mph 3.0 mph 91% 0.00 in 0 W/m2
21:25 31.3 °F 29.0 °F 30.16 in ESE 2.0 mph 4.0 mph 91% 0.00 in 0 W/m2
21:32 31.3 °F 28.7 °F 30.16 in ESE 3.0 mph 3.0 mph 90% 0.00 in 0 W/m2
21:38 31.3 °F 28.7 °F 30.16 in East 2.0 mph 6.0 mph 90% 0.00 in 0 W/m2
21:44 31.3 °F 28.7 °F 30.17 in East 2.0 mph 3.0 mph 90% 0.00 in 0 W/m2
21:50 31.3 °F 28.7 °F 30.17 in ESE 2.0 mph 2.0 mph 90% 0.00 in 0 W/m2
21:56 31.3 °F 28.7 °F 30.17 in East 2.0 mph 3.0 mph 90% 0.00 in 0 W/m2
22:02 31.3 °F 28.7 °F 30.17 in East 2.0 mph 3.0 mph 90% 0.00 in 0 W/m2
22:08 31.3 °F 28.7 °F 30.17 in ESE 2.0 mph 7.0 mph 90% 0.00 in 0 W/m2
22:14 31.3 °F 28.4 °F 30.17 in East 2.0 mph 2.0 mph 89% 0.00 in 0 W/m2
22:20 31.2 °F 28.3 °F 30.17 in East 1.0 mph 2.0 mph 89% 0.00 in 0 W/m2
22:26 31.2 °F 28.3 °F 30.17 in East 2.0 mph 2.0 mph 89% 0.00 in 0 W/m2
22:32 31.2 °F 28.3 °F 30.17 in East 2.0 mph 3.0 mph 89% 0.00 in 0 W/m2
22:38 31.2 °F 28.3 °F 30.17 in ENE 2.0 mph 3.0 mph 89% 0.00 in 0 W/m2
22:44 31.3 °F 28.4 °F 30.17 in East 3.0 mph 3.0 mph 89% 0.00 in 0 W/m2
22:50 31.3 °F 28.4 °F 30.17 in East 2.0 mph 2.0 mph 89% 0.00 in 0 W/m2
22:56 31.3 °F 28.4 °F 30.17 in ENE 1.0 mph 2.0 mph 89% 0.00 in 0 W/m2
23:02 31.3 °F 28.2 °F 30.17 in ENE 1.0 mph 1.0 mph 88% 0.00 in 0 W/m2
23:14 31.4 °F 28.3 °F 30.17 in ENE 2.0 mph 2.0 mph 88% 0.00 in 0 W/m2
23:20 31.4 °F 28.3 °F 30.17 in NE 2.0 mph 2.0 mph 88% 0.00 in 0 W/m2
23:28 31.3 °F 28.2 °F 30.18 in NE 1.0 mph 2.0 mph 88% 0.00 in 0 W/m2
23:34 31.4 °F 28.3 °F 30.18 in ENE 1.0 mph 4.0 mph 88% 0.00 in 0 W/m2
23:40 31.4 °F 28.0 °F 30.18 in East 1.0 mph 5.0 mph 87% 0.00 in 0 W/m2
23:46 31.4 °F 28.0 °F 30.18 in East 1.0 mph 5.0 mph 87% 0.00 in 0 W/m2
23:52 31.5 °F 28.1 °F 30.18 in East 1.0 mph 2.0 mph 87% 0.00 in 0 W/m2
23:58 31.5 °F 28.1 °F 30.17 in East 1.0 mph 2.0 mph 87% 0.00 in 0 W/m2
Country Meadow, Clay, NY, USA
Compliments of Weather Underground - 2 mb